To NAV CANADA Home Page Login to a new session Search on AWWS site Feedback and Comments Disclaimer Vers la page française équivalente Tips FAQ What's new on the site To the Forecasts and Observations / NOTAM section To "File a Flight Plan" website Publications and other links Update of the User's profile FIC Telephone Numbers My Weather Data Folder Route Weather Data Regional Weather Data Local Weather Data To the Forecasts and Observations / NOTAM section
Request Generated 10/22/2016 at 08:59:06 UTC . Weather information available at that time is displayed.



METAR CYQQ 220800Z 25002KT 20SM FEW008 SCT012 SCT050 06/06 A2992 RMK SF0SC3SC0 SLP132=
METAR CYQQ 220700Z 00000KT 20SM FEW008 SCT012 SCT040 07/06 A2991 RMK SF1SC2SC1 SLP129=
METAR CYQQ 220600Z 36002KT 20SM FEW050 06/06 A2991 RMK SC2 SLP128=

TAF CYQQ 220539Z 2206/2306 VRB03KT P6SM FEW008 SCT012 SCT050 TEMPO
2206/2209 2SM BR SCT008 BKN012 BKN050
FM220900 VRB03KT P6SM SCT007 BKN015 TEMPO 2209/2218 2SM BR BKN007
PROB30 2209/2216 3/4SM BR BKN004
BECMG 2218/2220 14010KT
FM222200 13012KT P6SM SCT015 TEMPO 2222/2306 BKN015
BECMG 2303/2305 13005KT
Your time UTC time
Weather data provided by Environment Canada and NAV CANADA